createdAt,value
2019-04-24T00:03:29.182Z,0.00
2019-04-24T00:04:47.643Z,0.00
2019-04-24T00:05:39.781Z,0.00
2019-04-24T00:06:24.747Z,0.00
2019-04-24T00:07:19.290Z,0.00
2019-04-24T00:08:30.245Z,0.00
2019-04-24T00:10:29.998Z,0.00
2019-04-24T00:12:27.620Z,0.00
2019-04-24T00:13:28.555Z,0.00
2019-04-24T00:14:33.570Z,0.00
2019-04-24T00:15:36.032Z,0.00
2019-04-24T00:16:30.786Z,0.00
2019-04-24T00:18:37.443Z,0.00
2019-04-24T00:20:57.652Z,0.00
2019-04-24T00:21:21.088Z,0.00
2019-04-24T00:22:18.189Z,0.00
2019-04-24T00:23:29.198Z,0.00
2019-04-24T00:24:38.730Z,0.00
2019-04-24T00:25:26.745Z,0.00
2019-04-24T00:26:19.668Z,0.00
2019-04-24T00:27:42.743Z,0.00
2019-04-24T00:29:26.073Z,0.00
2019-04-24T00:30:24.939Z,0.00
2019-04-24T00:32:21.846Z,0.00
2019-04-24T00:34:22.907Z,0.00
2019-04-24T00:35:28.101Z,0.00
2019-04-24T00:36:33.566Z,0.00
2019-04-24T00:37:29.617Z,0.00
2019-04-24T00:40:27.935Z,0.00
2019-04-24T00:42:41.093Z,0.00
2019-04-24T00:43:46.375Z,0.00
2019-04-24T00:44:16.945Z,0.00
2019-04-24T00:45:29.323Z,0.00
2019-04-24T00:46:37.849Z,0.00
2019-04-24T00:50:20.531Z,0.00
2019-04-24T00:51:32.699Z,0.00
2019-04-24T00:52:20.282Z,0.00
2019-04-24T00:54:21.418Z,0.00
2019-04-24T00:55:18.222Z,0.00
2019-04-24T00:56:32.051Z,0.00
2019-04-24T00:57:27.725Z,0.00
2019-04-24T00:58:24.426Z,0.00
2019-04-24T01:00:25.697Z,0.00
2019-04-24T01:02:25.034Z,0.00
2019-04-24T01:03:30.232Z,0.00
2019-04-24T01:05:33.563Z,0.00
2019-04-24T01:06:27.414Z,0.00
2019-04-24T01:09:28.840Z,0.00
2019-04-24T01:11:18.963Z,0.00
2019-04-24T01:12:34.537Z,0.00
2019-04-24T01:14:17.610Z,0.00
2019-04-24T01:17:30.250Z,0.00
2019-04-24T01:18:23.560Z,0.00
2019-04-24T01:19:28.016Z,0.00
2019-04-24T01:21:38.493Z,0.00
2019-04-24T01:23:18.864Z,0.00
2019-04-24T01:24:19.182Z,0.00
2019-04-24T01:26:22.495Z,0.00
2019-04-24T01:27:23.583Z,0.00
2019-04-24T01:28:27.790Z,0.00
2019-04-24T01:29:24.001Z,0.00
2019-04-24T01:30:51.445Z,0.00
2019-04-24T01:32:32.356Z,0.00
2019-04-24T01:33:26.466Z,0.00
2019-04-24T01:34:32.537Z,0.00
2019-04-24T01:35:26.096Z,0.00
2019-04-24T01:36:43.981Z,0.00
2019-04-24T01:38:30.567Z,0.00
2019-04-24T01:39:32.756Z,0.00
2019-04-24T01:40:19.369Z,0.00
2019-04-24T01:41:31.167Z,0.00
2019-04-24T01:42:55.094Z,0.00
2019-04-24T01:44:30.186Z,0.00
2019-04-24T01:46:23.472Z,0.00
2019-04-24T01:49:29.772Z,0.00
2019-04-24T01:50:57.439Z,0.00
2019-04-24T01:52:40.409Z,0.00
2019-04-24T01:53:23.921Z,0.00
2019-04-24T01:55:18.447Z,0.00
2019-04-24T01:56:42.252Z,0.00
2019-04-24T01:59:28.735Z,0.00
2019-04-24T02:00:39.104Z,0.00
2019-04-24T02:01:22.901Z,0.00
2019-04-24T02:03:19.581Z,0.00
2019-04-24T02:04:32.951Z,0.00
2019-04-24T02:05:26.722Z,0.00
2019-04-24T02:06:19.400Z,0.00
2019-04-24T02:08:29.545Z,0.00
2019-04-24T02:09:32.660Z,0.00
2019-04-24T02:10:44.726Z,0.00
2019-04-24T02:12:30.709Z,0.00
2019-04-24T02:14:37.713Z,0.00
2019-04-24T02:15:28.589Z,0.00
2019-04-24T02:16:22.372Z,0.00
2019-04-24T02:17:32.543Z,0.00
2019-04-24T02:19:29.524Z,0.00
2019-04-24T02:21:32.300Z,0.00
2019-04-24T02:22:31.364Z,0.00
2019-04-24T02:25:34.519Z,0.00
2019-04-24T02:26:28.432Z,0.00
2019-04-24T02:27:29.466Z,0.00
2019-04-24T02:29:26.242Z,0.00
2019-04-24T02:32:48.573Z,0.00
2019-04-24T02:35:47.069Z,0.00
2019-04-24T02:36:38.185Z,0.00
2019-04-24T02:38:39.988Z,0.00
2019-04-24T02:39:40.593Z,0.00
2019-04-24T02:40:42.149Z,0.00
2019-04-24T02:41:47.262Z,0.00
2019-04-24T02:46:37.735Z,0.00
2019-04-24T02:49:42.684Z,0.00
2019-04-24T02:50:31.832Z,0.00
2019-04-24T02:53:36.277Z,0.00
2019-04-24T02:55:16.833Z,0.00
2019-04-24T02:56:36.383Z,0.00
2019-04-24T02:57:37.503Z,0.00
2019-04-24T03:01:39.104Z,0.00
2019-04-24T03:02:59.973Z,0.00
2019-04-24T03:05:40.312Z,0.00
2019-04-24T03:06:40.589Z,0.00
2019-04-24T03:09:33.596Z,0.00
2019-04-24T03:13:01.513Z,0.00
2019-04-24T03:14:43.671Z,0.00
2019-04-24T03:15:40.096Z,0.00
2019-04-24T03:16:54.069Z,0.00
2019-04-24T03:18:35.641Z,0.00
2019-04-24T03:20:48.241Z,0.00
2019-04-24T03:22:35.024Z,0.00
2019-04-24T03:26:13.589Z,0.00
2019-04-24T03:27:02.215Z,0.00
2019-04-24T03:27:38.947Z,0.00
2019-04-24T03:28:35.304Z,0.00
2019-04-24T03:30:44.073Z,0.00
2019-04-24T03:33:59.959Z,0.00
2019-04-24T03:35:11.446Z,0.00
2019-04-24T03:36:09.521Z,0.00
2019-04-24T03:40:00.346Z,0.00
2019-04-24T03:41:14.288Z,0.00
2019-04-24T03:43:41.056Z,0.00
2019-04-24T03:46:27.578Z,0.00
2019-04-24T03:47:54.159Z,0.00
2019-04-24T03:48:39.376Z,0.00
2019-04-24T03:52:36.320Z,0.00
2019-04-24T03:54:32.867Z,0.00
2019-04-24T03:55:42.440Z,0.00
2019-04-24T03:56:30.840Z,0.00
2019-04-24T03:58:55.521Z,0.00
2019-04-24T04:00:43.630Z,0.00
2019-04-24T04:01:44.199Z,0.00
2019-04-24T04:02:48.279Z,0.00
2019-04-24T04:03:31.339Z,0.00
2019-04-24T04:07:38.710Z,0.00
2019-04-24T04:08:43.166Z,0.00
2019-04-24T04:09:50.505Z,0.00
2019-04-24T04:10:27.698Z,0.00
2019-04-24T04:11:38.311Z,0.00
2019-04-24T04:12:49.970Z,0.00
2019-04-24T04:16:43.105Z,0.00
2019-04-24T04:18:03.571Z,0.00
2019-04-24T04:19:42.136Z,0.00
2019-04-24T04:21:40.332Z,0.00
2019-04-24T04:22:49.426Z,0.00
2019-04-24T04:27:44.684Z,0.00
2019-04-24T04:28:39.848Z,0.00
2019-04-24T04:35:13.665Z,0.00
2019-04-24T04:37:59.419Z,0.00
2019-04-24T04:39:32.671Z,0.00
2019-04-24T04:41:39.574Z,0.00
2019-04-24T04:42:41.625Z,0.00
2019-04-24T04:43:49.060Z,0.00
2019-04-24T04:47:25.483Z,0.00
2019-04-24T04:49:50.971Z,0.00
2019-04-24T04:52:46.343Z,0.00
2019-04-24T04:55:32.715Z,0.00
2019-04-24T04:58:42.925Z,0.00
2019-04-24T05:00:35.517Z,0.00
2019-04-24T05:06:54.590Z,0.00
2019-04-24T05:11:46.866Z,0.00
2019-04-24T05:12:26.670Z,0.00
2019-04-24T05:13:51.430Z,0.00
2019-04-24T05:14:53.505Z,0.00
2019-04-24T05:15:39.962Z,0.00
2019-04-24T05:16:49.583Z,0.00
2019-04-24T05:17:40.467Z,0.00
2019-04-24T05:19:30.291Z,0.00
2019-04-24T05:20:31.195Z,0.00
2019-04-24T05:22:32.446Z,0.00
2019-04-24T05:23:43.238Z,0.00
2019-04-24T05:24:28.994Z,0.00
2019-04-24T05:27:04.911Z,0.00
2019-04-24T05:27:31.348Z,0.00
2019-04-24T05:28:39.339Z,0.00
2019-04-24T05:29:32.287Z,0.00
2019-04-24T05:30:25.315Z,0.00
2019-04-24T05:31:11.491Z,0.00
2019-04-24T05:32:45.104Z,0.00
2019-04-24T05:33:40.450Z,0.00
2019-04-24T05:34:40.703Z,0.00
2019-04-24T05:35:34.125Z,0.00
2019-04-24T05:36:20.567Z,0.00
2019-04-24T05:37:30.628Z,0.00
2019-04-24T05:38:30.985Z,0.00
2019-04-24T05:40:34.343Z,0.00
2019-04-24T05:41:24.966Z,0.00
2019-04-24T05:44:19.056Z,0.00
2019-04-24T05:45:32.346Z,0.00
2019-04-24T05:46:24.383Z,0.00
2019-04-24T05:47:36.055Z,0.00
2019-04-24T05:48:33.505Z,0.00
2019-04-24T05:49:25.758Z,0.00
2019-04-24T05:50:26.284Z,0.00
2019-04-24T05:52:36.059Z,0.00
2019-04-24T05:54:21.019Z,0.00
2019-04-24T05:55:42.384Z,0.00
2019-04-24T05:56:37.538Z,0.00
2019-04-24T05:57:49.079Z,0.00
2019-04-24T05:59:37.307Z,0.00
2019-04-24T06:00:29.291Z,0.00
2019-04-24T06:01:34.365Z,0.00
2019-04-24T06:03:36.631Z,0.00
2019-04-24T06:04:40.098Z,0.00
2019-04-24T06:05:28.420Z,0.00
2019-04-24T06:06:48.985Z,0.00
2019-04-24T06:07:53.804Z,0.00
2019-04-24T06:08:31.694Z,0.00
2019-04-24T06:09:21.717Z,0.00
2019-04-24T06:11:40.155Z,0.00
2019-04-24T06:12:27.603Z,0.00
2019-04-24T06:13:32.962Z,0.00
2019-04-24T06:14:31.395Z,0.00
2019-04-24T06:15:30.234Z,0.00
2019-04-24T06:16:26.696Z,0.00
2019-04-24T06:17:22.106Z,0.00
2019-04-24T06:19:26.146Z,0.00
2019-04-24T06:20:42.803Z,0.00
2019-04-24T06:23:37.199Z,0.00
2019-04-24T06:25:47.001Z,0.00
2019-04-24T06:26:42.019Z,0.00
2019-04-24T06:27:31.002Z,0.00
2019-04-24T06:29:01.710Z,0.00
2019-04-24T06:29:35.014Z,0.00
2019-04-24T06:30:27.607Z,0.00
2019-04-24T06:31:51.851Z,0.00
2019-04-24T06:32:31.283Z,0.00
2019-04-24T06:33:35.948Z,0.00
2019-04-24T06:34:30.629Z,0.00
2019-04-24T06:36:38.945Z,0.00
2019-04-24T06:37:25.859Z,0.00
2019-04-24T06:38:26.892Z,0.00
2019-04-24T06:39:35.644Z,0.00
2019-04-24T06:40:39.592Z,0.00
2019-04-24T06:41:33.120Z,0.00
2019-04-24T06:42:21.995Z,0.00
2019-04-24T06:43:16.510Z,0.00
2019-04-24T06:44:42.665Z,0.00
2019-04-24T06:46:27.906Z,0.00
2019-04-24T06:48:21.284Z,0.00
2019-04-24T06:50:50.535Z,0.00
2019-04-24T06:51:28.332Z,0.00
2019-04-24T06:52:28.440Z,0.00
2019-04-24T06:53:11.138Z,0.00
2019-04-24T06:54:18.605Z,0.00
2019-04-24T06:55:32.357Z,0.00
2019-04-24T06:56:31.780Z,0.00
2019-04-24T06:58:16.272Z,0.00
2019-04-24T06:59:28.120Z,0.00
2019-04-24T07:00:37.576Z,0.00
2019-04-24T07:01:37.997Z,0.00
2019-04-24T07:02:23.087Z,0.00
2019-04-24T07:04:44.459Z,0.00
2019-04-24T07:05:23.052Z,0.00
2019-04-24T07:06:35.011Z,0.00
2019-04-24T07:08:07.177Z,0.00
2019-04-24T07:09:31.879Z,0.00
2019-04-24T07:10:41.193Z,0.00
2019-04-24T07:12:27.962Z,0.00
2019-04-24T07:13:56.889Z,0.00
2019-04-24T07:14:19.093Z,0.00
2019-04-24T07:15:27.150Z,0.00
2019-04-24T07:16:27.196Z,0.00
2019-04-24T07:19:25.336Z,0.00
2019-04-24T07:20:38.462Z,0.00
2019-04-24T07:21:22.353Z,0.00
2019-04-24T07:22:19.702Z,0.00
2019-04-24T07:23:24.605Z,0.00
2019-04-24T07:24:31.649Z,0.00
2019-04-24T07:25:36.928Z,0.00
2019-04-24T07:28:33.762Z,0.00
2019-04-24T07:29:26.857Z,0.00
2019-04-24T07:30:37.360Z,0.00
2019-04-24T07:32:23.510Z,0.00
2019-04-24T07:33:29.222Z,0.00
2019-04-24T07:34:34.369Z,0.00
2019-04-24T07:36:27.949Z,0.00
2019-04-24T07:37:31.100Z,0.00
2019-04-24T07:38:23.284Z,0.00
2019-04-24T07:39:30.038Z,0.00
2019-04-24T07:40:12.730Z,0.00
2019-04-24T07:42:19.503Z,0.00
2019-04-24T07:45:25.866Z,0.00
2019-04-24T07:46:29.703Z,0.00
2019-04-24T07:48:19.531Z,0.00
2019-04-24T07:49:19.008Z,0.00
2019-04-24T07:50:39.140Z,0.00
2019-04-24T07:51:30.873Z,0.00
2019-04-24T07:52:28.915Z,0.00
2019-04-24T07:53:48.790Z,0.00
2019-04-24T07:54:46.131Z,0.00
2019-04-24T07:55:17.929Z,0.00
2019-04-24T07:56:37.437Z,0.00
2019-04-24T07:57:29.247Z,0.00
2019-04-24T07:58:38.578Z,0.00
2019-04-24T08:00:21.843Z,0.00
2019-04-24T08:01:30.445Z,0.00
2019-04-24T08:03:24.586Z,0.00
2019-04-24T08:04:34.792Z,0.00
2019-04-24T08:05:18.145Z,0.00
2019-04-24T08:07:28.731Z,0.00
2019-04-24T08:08:47.877Z,0.00
2019-04-24T08:10:04.087Z,0.00
2019-04-24T08:10:25.435Z,0.00
2019-04-24T08:11:17.588Z,0.00
2019-04-24T08:12:23.716Z,0.00
2019-04-24T08:14:55.737Z,0.00
2019-04-24T08:16:14.973Z,0.00
2019-04-24T08:18:27.834Z,0.00
2019-04-24T08:19:34.652Z,0.00
2019-04-24T08:20:27.077Z,0.00
2019-04-24T08:21:11.350Z,0.00
2019-04-24T08:22:36.590Z,0.00
2019-04-24T08:23:29.095Z,0.00
2019-04-24T08:24:36.383Z,0.00
2019-04-24T08:25:24.802Z,0.00
2019-04-24T08:26:10.109Z,0.00
2019-04-24T08:28:40.649Z,0.00
2019-04-24T08:29:24.693Z,0.00
2019-04-24T08:30:44.135Z,0.00
2019-04-24T08:31:31.309Z,0.00
2019-04-24T08:32:26.873Z,0.00
2019-04-24T08:33:38.622Z,0.00
2019-04-24T08:34:41.226Z,0.00
2019-04-24T08:35:40.001Z,0.00
2019-04-24T08:36:26.880Z,0.00
2019-04-24T08:37:31.667Z,0.00
2019-04-24T08:40:19.213Z,0.00
2019-04-24T08:41:39.573Z,0.00
2019-04-24T08:44:30.181Z,0.00
2019-04-24T08:45:18.025Z,0.00
2019-04-24T08:46:28.481Z,0.00
2019-04-24T08:47:28.948Z,0.00
2019-04-24T08:48:39.812Z,0.00
2019-04-24T08:49:42.254Z,0.00
2019-04-24T08:50:44.120Z,0.00
2019-04-24T08:51:23.964Z,0.00
2019-04-24T08:53:24.824Z,0.00
2019-04-24T08:55:32.744Z,0.00
2019-04-24T08:56:29.902Z,0.00
2019-04-24T08:57:25.502Z,0.00
2019-04-24T08:59:42.829Z,0.00
2019-04-24T09:00:41.545Z,0.00
2019-04-24T09:01:26.947Z,0.00
2019-04-24T09:02:22.193Z,0.00
2019-04-24T09:04:34.292Z,0.00
2019-04-24T09:05:09.598Z,0.00
2019-04-24T09:06:11.550Z,0.00
2019-04-24T09:07:31.688Z,0.00
2019-04-24T09:08:21.427Z,0.00
2019-04-24T09:09:36.492Z,0.00
2019-04-24T09:12:32.566Z,0.00
2019-04-24T09:13:28.669Z,0.00
2019-04-24T09:14:22.019Z,0.00
2019-04-24T09:15:27.048Z,0.00
2019-04-24T09:17:18.725Z,0.00
2019-04-24T09:18:22.338Z,0.00
2019-04-24T09:19:20.071Z,0.00
2019-04-24T09:21:17.069Z,0.00
2019-04-24T09:22:36.438Z,0.00
2019-04-24T09:23:47.059Z,0.00
2019-04-24T09:24:28.772Z,0.00
2019-04-24T09:25:30.098Z,0.00
2019-04-24T09:26:46.204Z,0.00
2019-04-24T09:28:26.637Z,0.00
2019-04-24T09:29:39.206Z,0.00
2019-04-24T09:30:20.066Z,0.00
2019-04-24T09:31:19.218Z,0.00
2019-04-24T09:32:44.171Z,0.00
2019-04-24T09:33:26.815Z,0.00
2019-04-24T09:34:37.284Z,0.00
2019-04-24T09:35:43.627Z,0.00
2019-04-24T09:38:34.662Z,0.00
2019-04-24T09:39:27.547Z,0.00
2019-04-24T09:40:47.587Z,0.00
2019-04-24T09:42:47.539Z,0.00
2019-04-24T09:43:27.895Z,0.00
2019-04-24T09:44:23.160Z,0.00
2019-04-24T09:45:19.939Z,0.00
2019-04-24T09:46:29.098Z,0.00
2019-04-24T09:47:24.191Z,0.00
2019-04-24T09:49:07.454Z,0.00
2019-04-24T09:53:40.111Z,0.00
2019-04-24T09:54:20.787Z,0.00
2019-04-24T09:55:33.260Z,0.00
2019-04-24T09:56:17.955Z,0.00
2019-04-24T09:58:34.097Z,5.63
2019-04-24T09:59:24.358Z,5.63
2019-04-24T10:00:17.999Z,5.63
2019-04-24T10:02:27.731Z,5.63
2019-04-24T10:03:31.760Z,5.63
2019-04-24T10:08:21.123Z,5.63
2019-04-24T10:10:24.631Z,5.63
2019-04-24T10:11:39.023Z,5.63
2019-04-24T10:12:36.278Z,5.63
2019-04-24T10:13:11.852Z,5.63
2019-04-24T10:14:18.668Z,5.63
2019-04-24T10:15:25.809Z,5.63
2019-04-24T10:16:11.085Z,5.63
2019-04-24T10:17:39.410Z,5.63
2019-04-24T10:18:24.458Z,5.63
2019-04-24T10:19:37.281Z,5.63
2019-04-24T10:20:22.558Z,5.63
2019-04-24T10:21:12.193Z,5.63
2019-04-24T10:22:16.498Z,5.63
2019-04-24T10:23:14.811Z,5.63
2019-04-24T10:24:10.461Z,5.63
2019-04-24T10:25:17.359Z,5.63
2019-04-24T10:26:23.002Z,5.63
2019-04-24T10:27:23.278Z,5.63
2019-04-24T10:29:29.321Z,5.63
2019-04-24T10:30:13.767Z,5.63
2019-04-24T10:31:19.002Z,5.63
2019-04-24T10:34:19.201Z,11.25
2019-04-24T10:35:26.794Z,11.25
2019-04-24T10:36:23.768Z,11.25
2019-04-24T10:37:22.695Z,11.25
2019-04-24T10:39:39.996Z,11.25
2019-04-24T10:41:18.983Z,11.25
2019-04-24T10:42:16.321Z,11.25
2019-04-24T10:43:17.488Z,11.25
2019-04-24T10:46:22.784Z,11.25
2019-04-24T10:49:31.845Z,11.25
2019-04-24T10:50:19.854Z,11.25
2019-04-24T10:51:17.941Z,11.25
2019-04-24T10:52:11.932Z,11.25
2019-04-24T10:53:25.436Z,11.25
2019-04-24T10:54:13.900Z,11.25
2019-04-24T10:55:31.026Z,11.25
2019-04-24T10:57:25.164Z,11.25
2019-04-24T10:58:15.940Z,16.88
2019-04-24T10:59:16.696Z,16.88
2019-04-24T11:00:17.845Z,16.88
2019-04-24T11:01:26.905Z,16.88
2019-04-24T11:02:28.045Z,16.88
2019-04-24T11:03:32.108Z,11.25
2019-04-24T11:04:16.094Z,16.88
2019-04-24T11:05:45.024Z,16.88
2019-04-24T11:06:33.620Z,16.88
2019-04-24T11:09:29.892Z,11.25
2019-04-24T11:11:19.361Z,11.25
2019-04-24T11:14:17.364Z,11.25
2019-04-24T11:15:25.563Z,11.25
2019-04-24T11:16:30.847Z,11.25
2019-04-24T11:17:23.873Z,16.88
2019-04-24T11:18:20.665Z,16.88
2019-04-24T11:19:38.480Z,16.88
2019-04-24T11:20:22.265Z,16.88
2019-04-24T11:21:45.582Z,16.88
2019-04-24T11:22:19.170Z,16.88
2019-04-24T11:23:20.255Z,16.88
2019-04-24T11:24:39.513Z,16.88
2019-04-24T11:25:32.368Z,16.88
2019-04-24T11:28:30.965Z,16.88
2019-04-24T11:29:18.960Z,22.50
2019-04-24T11:31:20.271Z,22.50
2019-04-24T11:32:22.873Z,22.50
2019-04-24T11:33:33.342Z,22.50
2019-04-24T11:34:49.205Z,22.50
2019-04-24T11:35:28.487Z,28.13
2019-04-24T11:37:26.523Z,28.13
2019-04-24T11:38:19.568Z,22.50
2019-04-24T11:41:26.594Z,39.38
2019-04-24T11:42:08.451Z,33.75
2019-04-24T11:43:13.670Z,28.13
2019-04-24T11:44:16.088Z,45.00
2019-04-24T11:46:41.782Z,45.00
2019-04-24T11:48:19.898Z,50.63
2019-04-24T11:49:24.848Z,50.63
2019-04-24T11:51:06.509Z,45.00
2019-04-24T11:52:19.858Z,39.38
2019-04-24T11:54:29.916Z,39.38
2019-04-24T11:55:23.768Z,50.63
2019-04-24T11:56:20.364Z,33.75
2019-04-24T11:57:41.217Z,50.63
2019-04-24T11:58:29.429Z,33.75
2019-04-24T11:58:51.329Z,28.13
2019-04-24T12:00:01.768Z,28.13
2019-04-24T12:01:08.272Z,22.50
2019-04-24T12:02:26.833Z,22.50
2019-04-24T12:03:13.580Z,33.75
2019-04-24T12:04:40.146Z,50.63
2019-04-24T12:06:23.946Z,67.50
2019-04-24T12:07:38.515Z,67.50
2019-04-24T12:08:12.830Z,67.50
2019-04-24T12:10:22.371Z,67.50
2019-04-24T12:12:08.098Z,67.50
2019-04-24T12:14:16.243Z,61.88
2019-04-24T12:15:22.384Z,73.13
2019-04-24T12:16:10.973Z,73.13
2019-04-24T12:17:05.170Z,73.13
2019-04-24T12:18:16.264Z,73.13
2019-04-24T12:19:21.437Z,73.13
2019-04-24T12:20:19.601Z,73.13
2019-04-24T12:22:10.105Z,73.13
2019-04-24T12:23:17.125Z,73.13
2019-04-24T12:25:10.848Z,39.38
2019-04-24T12:27:04.962Z,73.13
2019-04-24T12:28:17.419Z,61.88
2019-04-24T12:30:13.243Z,61.88
2019-04-24T12:31:18.777Z,39.38
2019-04-24T12:32:09.973Z,39.38
2019-04-24T12:33:06.301Z,33.75
2019-04-24T12:34:16.915Z,33.75
2019-04-24T12:37:12.140Z,39.38
2019-04-24T12:38:12.397Z,45.00
2019-04-24T12:39:25.601Z,39.38
2019-04-24T12:40:18.605Z,61.88
2019-04-24T12:41:09.924Z,50.63
2019-04-24T12:42:39.406Z,39.38
2019-04-24T12:43:13.585Z,45.00
2019-04-24T12:45:24.683Z,39.38
2019-04-24T12:48:06.394Z,33.75
2019-04-24T12:49:25.423Z,56.25
2019-04-24T12:51:10.504Z,45.00
2019-04-24T12:52:06.521Z,56.25
2019-04-24T12:53:25.199Z,56.25
2019-04-24T12:55:16.032Z,39.38
2019-04-24T12:56:15.410Z,50.63
2019-04-24T12:58:28.999Z,67.50
2019-04-24T13:00:11.672Z,56.25
2019-04-24T13:01:20.466Z,50.63
2019-04-24T13:02:12.214Z,45.00
2019-04-24T13:03:15.406Z,50.63
2019-04-24T13:05:25.028Z,39.38
2019-04-24T13:07:37.713Z,84.38
2019-04-24T13:12:27.424Z,84.38
2019-04-24T13:13:17.066Z,84.38
2019-04-24T13:14:23.913Z,84.38
2019-04-24T13:16:13.494Z,67.50
2019-04-24T13:18:15.540Z,67.50
2019-04-24T13:19:14.292Z,50.63
2019-04-24T13:19:48.457Z,61.88
2019-04-24T13:20:49.524Z,78.75
2019-04-24T13:21:54.415Z,78.75
2019-04-24T13:22:58.114Z,78.75
2019-04-24T13:24:01.407Z,39.38
2019-04-24T13:25:13.534Z,33.75
2019-04-24T13:26:17.513Z,33.75
2019-04-24T13:27:16.226Z,39.38
2019-04-24T13:28:49.548Z,39.38
2019-04-24T13:30:17.988Z,56.25
2019-04-24T13:31:23.517Z,45.00
2019-04-24T13:32:17.171Z,61.88
2019-04-24T13:33:27.123Z,39.38
2019-04-24T13:34:19.940Z,45.00
2019-04-24T13:36:36.833Z,33.75
2019-04-24T13:37:16.193Z,33.75
2019-04-24T13:38:22.779Z,45.00
2019-04-24T13:39:28.129Z,67.50
2019-04-24T13:40:07.630Z,50.63
2019-04-24T13:41:14.313Z,67.50
2019-04-24T13:42:17.743Z,84.38
2019-04-24T13:43:26.700Z,84.38
2019-04-24T13:44:19.666Z,67.50
2019-04-24T13:45:32.389Z,78.75
2019-04-24T13:46:26.939Z,84.38
2019-04-24T13:47:18.523Z,90.00
2019-04-24T13:48:23.715Z,84.38
2019-04-24T13:49:13.525Z,90.00
2019-04-24T13:50:18.091Z,90.00
2019-04-24T13:51:16.495Z,90.00
2019-04-24T13:54:37.298Z,90.00
2019-04-24T13:55:23.579Z,90.00
2019-04-24T13:56:09.322Z,84.38
2019-04-24T13:57:15.198Z,90.00
2019-04-24T13:58:22.158Z,90.00
2019-04-24T13:59:35.650Z,84.38
2019-04-24T14:00:40.121Z,90.00
2019-04-24T14:01:31.272Z,90.00
2019-04-24T14:02:24.787Z,90.00
2019-04-24T14:04:15.854Z,78.75
2019-04-24T14:05:18.391Z,95.63
2019-04-24T14:06:27.271Z,61.88
2019-04-24T14:09:28.662Z,90.00
2019-04-24T14:12:28.962Z,67.50
2019-04-24T14:13:34.981Z,45.00
2019-04-24T14:16:16.438Z,67.50
2019-04-24T14:17:16.539Z,45.00
2019-04-24T14:21:18.775Z,84.38
2019-04-24T14:22:14.471Z,50.63
2019-04-24T14:23:31.679Z,45.00
2019-04-24T14:24:22.652Z,39.38
2019-04-24T14:26:23.087Z,39.38
2019-04-24T14:27:17.473Z,39.38
2019-04-24T14:28:27.675Z,39.38
2019-04-24T14:29:16.435Z,45.00
2019-04-24T14:30:19.111Z,50.63
2019-04-24T14:31:17.051Z,73.13
2019-04-24T14:35:31.940Z,90.00
2019-04-24T14:37:15.331Z,45.00
2019-04-24T14:38:25.698Z,45.00
2019-04-24T14:39:23.605Z,50.63
2019-04-24T14:41:23.737Z,78.75
2019-04-24T14:42:33.810Z,61.88
2019-04-24T14:45:29.862Z,67.50
2019-04-24T14:46:33.286Z,56.25
2019-04-24T14:47:24.441Z,84.38
2019-04-24T14:48:18.244Z,90.00
2019-04-24T14:50:26.301Z,90.00
2019-04-24T14:51:19.742Z,90.00
2019-04-24T14:52:29.298Z,90.00
2019-04-24T14:53:19.078Z,90.00
2019-04-24T14:54:21.857Z,90.00
2019-04-24T14:55:23.030Z,73.13
2019-04-24T14:56:19.010Z,90.00
2019-04-24T14:57:22.212Z,84.38
2019-04-24T14:58:19.623Z,84.38
2019-04-24T14:59:41.434Z,84.38
2019-04-24T15:00:43.432Z,84.38
2019-04-24T15:01:17.779Z,56.25
2019-04-24T15:02:17.130Z,73.13
2019-04-24T15:03:16.904Z,67.50
2019-04-24T15:05:18.790Z,67.50
2019-04-24T15:06:23.687Z,61.88
2019-04-24T15:07:20.863Z,50.63
2019-04-24T15:08:16.975Z,45.00
2019-04-24T15:09:32.473Z,45.00
2019-04-24T15:11:23.470Z,45.00
2019-04-24T15:14:11.251Z,50.63
2019-04-24T15:15:21.974Z,50.63
2019-04-24T15:16:36.872Z,50.63
2019-04-24T15:17:25.334Z,50.63
2019-04-24T15:21:16.247Z,45.00
2019-04-24T15:24:41.066Z,39.38
2019-04-24T15:26:33.639Z,33.75
2019-04-24T15:27:19.137Z,33.75
2019-04-24T15:28:17.355Z,33.75
2019-04-24T15:30:14.741Z,39.38
2019-04-24T15:31:12.607Z,39.38
2019-04-24T15:32:20.016Z,45.00
2019-04-24T15:33:16.128Z,45.00
2019-04-24T15:35:25.126Z,45.00
2019-04-24T15:36:22.488Z,45.00
2019-04-24T15:37:26.943Z,45.00
2019-04-24T15:38:31.480Z,45.00
2019-04-24T15:39:23.183Z,45.00
2019-04-24T15:41:24.722Z,45.00
2019-04-24T15:42:14.809Z,45.00
2019-04-24T15:44:16.106Z,39.38
2019-04-24T15:45:15.204Z,39.38
2019-04-24T15:47:34.088Z,39.38
2019-04-24T15:48:27.835Z,39.38
2019-04-24T15:49:18.034Z,39.38
2019-04-24T15:50:27.500Z,39.38
2019-04-24T15:51:16.905Z,39.38
2019-04-24T15:51:47.946Z,45.00
2019-04-24T15:52:48.040Z,45.00
2019-04-24T15:53:47.932Z,45.00
2019-04-24T15:54:47.913Z,45.00
2019-04-24T15:55:47.936Z,45.00
2019-04-24T15:56:47.929Z,45.00
2019-04-24T15:57:49.750Z,45.00
2019-04-24T15:58:58.560Z,50.63
2019-04-24T16:00:13.664Z,50.63
2019-04-24T16:01:20.529Z,45.00
2019-04-24T16:02:20.931Z,45.00
2019-04-24T16:03:23.480Z,45.00
2019-04-24T16:04:17.791Z,45.00
2019-04-24T16:04:55.982Z,45.00
2019-04-24T16:05:47.892Z,45.00
2019-04-24T16:06:47.888Z,45.00
2019-04-24T16:07:47.855Z,45.00
2019-04-24T16:08:47.868Z,39.38
2019-04-24T16:09:47.877Z,39.38
2019-04-24T16:10:47.868Z,39.38
2019-04-24T16:11:47.861Z,39.38
2019-04-24T16:12:47.949Z,39.38
2019-04-24T16:13:56.061Z,39.38
2019-04-24T16:15:36.141Z,39.38
2019-04-24T16:16:17.722Z,45.00
2019-04-24T16:17:11.361Z,45.00
2019-04-24T16:18:19.098Z,50.63
2019-04-24T16:20:10.679Z,50.63
2019-04-24T16:22:16.583Z,50.63
2019-04-24T16:24:34.657Z,45.00
2019-04-24T16:25:25.214Z,45.00
2019-04-24T16:26:17.475Z,39.38
2019-04-24T16:27:20.979Z,39.38
2019-04-24T16:28:14.277Z,39.38
2019-04-24T16:29:16.477Z,39.38
2019-04-24T16:30:09.096Z,39.38
2019-04-24T16:32:35.834Z,39.38
2019-04-24T16:33:19.635Z,39.38
2019-04-24T16:35:15.313Z,33.75
2019-04-24T16:36:24.595Z,33.75
2019-04-24T16:38:20.202Z,33.75
2019-04-24T16:40:30.012Z,33.75
2019-04-24T16:41:22.633Z,33.75
2019-04-24T16:46:45.788Z,33.75
2019-04-24T16:47:19.694Z,33.75
2019-04-24T16:49:19.208Z,33.75
2019-04-24T16:52:16.261Z,33.75
2019-04-24T16:53:16.248Z,33.75
2019-04-24T16:54:17.148Z,33.75
2019-04-24T16:56:25.114Z,33.75
2019-04-24T16:57:13.796Z,33.75
2019-04-24T16:58:15.415Z,33.75
2019-04-24T17:00:21.857Z,33.75
2019-04-24T17:02:09.680Z,28.13
2019-04-24T17:03:22.605Z,28.13
2019-04-24T17:06:22.328Z,33.75
2019-04-24T17:11:22.560Z,33.75
2019-04-24T17:13:20.493Z,33.75
2019-04-24T17:15:13.604Z,33.75
2019-04-24T17:16:20.165Z,33.75
2019-04-24T17:17:33.130Z,33.75
2019-04-24T17:20:16.781Z,28.13
2019-04-24T17:22:28.751Z,28.13
2019-04-24T17:23:19.099Z,28.13
2019-04-24T17:24:19.077Z,28.13
2019-04-24T17:27:14.868Z,28.13
2019-04-24T17:28:17.180Z,28.13
2019-04-24T17:31:20.438Z,33.75
2019-04-24T17:32:19.555Z,33.75
2019-04-24T17:33:14.050Z,28.13
2019-04-24T17:34:24.743Z,28.13
2019-04-24T17:36:47.454Z,28.13
2019-04-24T17:37:47.476Z,28.13
2019-04-24T17:38:47.441Z,28.13
2019-04-24T17:39:47.437Z,28.13
2019-04-24T17:40:47.433Z,28.13
2019-04-24T17:41:55.243Z,28.13
2019-04-24T17:43:06.797Z,33.75
2019-04-24T17:45:16.222Z,33.75
2019-04-24T17:46:21.939Z,28.13
2019-04-24T17:47:20.207Z,33.75
2019-04-24T17:48:12.954Z,28.13
2019-04-24T17:49:24.645Z,28.13
2019-04-24T17:51:28.239Z,28.13
2019-04-24T17:52:27.845Z,28.13
2019-04-24T17:55:11.167Z,28.13
2019-04-24T17:57:12.959Z,28.13
2019-04-24T17:57:48.800Z,28.13
2019-04-24T17:58:47.328Z,33.75
2019-04-24T17:59:47.501Z,28.13
2019-04-24T18:00:47.325Z,28.13
2019-04-24T18:01:47.338Z,28.13
2019-04-24T18:02:47.311Z,28.13
2019-04-24T18:03:47.309Z,28.13
2019-04-24T18:04:47.295Z,28.13
2019-04-24T18:05:47.353Z,28.13
2019-04-24T18:06:47.303Z,28.13
2019-04-24T18:07:47.337Z,28.13
2019-04-24T18:08:47.281Z,28.13
2019-04-24T18:09:47.275Z,28.13
2019-04-24T18:10:47.309Z,28.13
2019-04-24T18:11:47.280Z,28.13
2019-04-24T18:12:47.278Z,28.13
2019-04-24T18:13:47.272Z,28.13
2019-04-24T18:14:47.256Z,28.13
2019-04-24T18:15:47.233Z,22.50
2019-04-24T18:16:47.257Z,22.50
2019-04-24T18:17:47.231Z,22.50
2019-04-24T18:18:47.239Z,22.50
2019-04-24T18:19:47.233Z,22.50
2019-04-24T18:20:47.222Z,22.50
2019-04-24T18:21:47.264Z,22.50
2019-04-24T18:22:47.230Z,22.50
2019-04-24T18:23:47.220Z,28.13
2019-04-24T18:24:47.243Z,28.13
2019-04-24T18:25:47.239Z,22.50
2019-04-24T18:26:47.192Z,22.50
2019-04-24T18:27:47.195Z,22.50
2019-04-24T18:28:47.182Z,22.50
2019-04-24T18:29:47.175Z,22.50
2019-04-24T18:30:47.175Z,28.13
2019-04-24T18:31:47.159Z,28.13
2019-04-24T18:32:47.153Z,22.50
2019-04-24T18:33:47.160Z,22.50